Terminal Aerodrome Forecast
Issued by NWS Burlington, VT

Current Version | Previous Version | Text Only | Print | Product List | Glossary On
Versions: 1 2 3 4 5 6 7 8 9 10 11 12 13 14 15 16 17 18
360 FTUS41 KBTV 171730 TAFBTV TAF KBTV 171730Z 1718/1818 VRB04KT P6SM BKN200 FM172200 16007KT P6SM OVC100 FM180000 16008KT 6SM -SN OVC050 FM180100 16009KT 1SM -SN BR OVC020 FM180800 17009KT 2SM -SN BR OVC020 FM181500 17007KT 3SM -SN BR OVC025=

USA.gov is the U.S. government's official web portal to all federal, state and local government web resources and services.